sensor_id;sensor_type;location;lat;lon;timestamp;P1;durP1;ratioP1;P2;durP2;ratioP2
68315;SDS011;55508;54.368;18.406;2023-12-20T00:01:03;1.88;;;1.77;;
68315;SDS011;55508;54.368;18.406;2023-12-20T00:03:30;1.83;;;1.30;;
68315;SDS011;55508;54.368;18.406;2023-12-20T00:06:08;1.40;;;1.30;;
68315;SDS011;55508;54.368;18.406;2023-12-20T00:08:35;1.80;;;1.70;;
68315;SDS011;55508;54.368;18.406;2023-12-20T00:11:02;1.50;;;1.40;;
68315;SDS011;55508;54.368;18.406;2023-12-20T00:13:30;2.22;;;2.13;;
68315;SDS011;55508;54.368;18.406;2023-12-20T00:15:57;0.90;;;0.90;;
68315;SDS011;55508;54.368;18.406;2023-12-20T00:18:24;2.85;;;1.60;;
68315;SDS011;55508;54.368;18.406;2023-12-20T00:20:51;1.88;;;1.77;;
68315;SDS011;55508;54.368;18.406;2023-12-20T00:23:18;1.77;;;1.67;;
68315;SDS011;55508;54.368;18.406;2023-12-20T00:25:44;1.50;;;1.40;;
68315;SDS011;55508;54.368;18.406;2023-12-20T00:28:12;1.38;;;1.27;;
68315;SDS011;55508;54.368;18.406;2023-12-20T00:30:39;0.70;;;0.70;;
68315;SDS011;55508;54.368;18.406;2023-12-20T00:33:06;1.08;;;1.00;;
68315;SDS011;55508;54.368;18.406;2023-12-20T00:35:33;1.50;;;1.40;;
68315;SDS011;55508;54.368;18.406;2023-12-20T00:38:00;1.63;;;1.17;;
68315;SDS011;55508;54.368;18.406;2023-12-20T00:40:27;1.65;;;1.23;;
68315;SDS011;55508;54.368;18.406;2023-12-20T00:42:53;1.80;;;1.02;;
68315;SDS011;55508;54.368;18.406;2023-12-20T00:45:20;1.15;;;0.85;;
68315;SDS011;55508;54.368;18.406;2023-12-20T00:47:47;2.03;;;0.80;;
68315;SDS011;55508;54.368;18.406;2023-12-20T00:50:15;0.75;;;0.60;;
68315;SDS011;55508;54.368;18.406;2023-12-20T00:52:43;2.03;;;1.00;;
68315;SDS011;55508;54.368;18.406;2023-12-20T00:55:09;2.20;;;0.90;;
68315;SDS011;55508;54.368;18.406;2023-12-20T00:57:37;1.65;;;1.10;;
68315;SDS011;55508;54.368;18.406;2023-12-20T01:00:04;2.88;;;0.60;;
68315;SDS011;55508;54.368;18.406;2023-12-20T01:02:31;1.92;;;0.90;;
68315;SDS011;55508;54.368;18.406;2023-12-20T01:04:58;2.42;;;0.80;;
68315;SDS011;55508;54.368;18.406;2023-12-20T01:07:25;1.83;;;0.80;;
68315;SDS011;55508;54.368;18.406;2023-12-20T01:09:53;2.58;;;1.27;;
68315;SDS011;55508;54.368;18.406;2023-12-20T01:12:20;6.93;;;2.38;;
68315;SDS011;55508;54.368;18.406;2023-12-20T01:14:47;4.43;;;1.30;;
68315;SDS011;55508;54.368;18.406;2023-12-20T01:17:14;2.58;;;1.38;;
68315;SDS011;55508;54.368;18.406;2023-12-20T01:19:41;2.97;;;0.73;;
68315;SDS011;55508;54.368;18.406;2023-12-20T01:22:08;1.95;;;0.90;;
68315;SDS011;55508;54.368;18.406;2023-12-20T01:24:35;4.35;;;1.10;;
68315;SDS011;55508;54.368;18.406;2023-12-20T01:27:02;3.00;;;1.05;;
68315;SDS011;55508;54.368;18.406;2023-12-20T01:29:29;1.95;;;0.90;;
68315;SDS011;55508;54.368;18.406;2023-12-20T01:31:56;2.65;;;0.80;;
68315;SDS011;55508;54.368;18.406;2023-12-20T01:34:23;1.52;;;1.02;;
68315;SDS011;55508;54.368;18.406;2023-12-20T01:36:50;2.42;;;1.20;;
68315;SDS011;55508;54.368;18.406;2023-12-20T01:39:17;3.55;;;1.80;;
68315;SDS011;55508;54.368;18.406;2023-12-20T01:41:55;4.82;;;1.20;;
68315;SDS011;55508;54.368;18.406;2023-12-20T01:44:22;4.13;;;1.27;;
68315;SDS011;55508;54.368;18.406;2023-12-20T01:46:49;4.20;;;1.70;;
68315;SDS011;55508;54.368;18.406;2023-12-20T01:49:16;4.22;;;1.50;;
68315;SDS011;55508;54.368;18.406;2023-12-20T01:51:43;3.35;;;2.70;;
68315;SDS011;55508;54.368;18.406;2023-12-20T01:54:10;6.18;;;2.22;;
68315;SDS011;55508;54.368;18.406;2023-12-20T01:56:37;4.38;;;2.30;;
68315;SDS011;55508;54.368;18.406;2023-12-20T01:59:05;7.60;;;2.55;;
68315;SDS011;55508;54.368;18.406;2023-12-20T02:01:32;5.05;;;2.00;;
68315;SDS011;55508;54.368;18.406;2023-12-20T02:04:00;7.47;;;1.75;;
68315;SDS011;55508;54.368;18.406;2023-12-20T02:06:29;4.35;;;1.80;;
68315;SDS011;55508;54.368;18.406;2023-12-20T02:08:58;8.15;;;2.92;;
68315;SDS011;55508;54.368;18.406;2023-12-20T02:11:25;6.28;;;1.70;;
68315;SDS011;55508;54.368;18.406;2023-12-20T02:13:53;9.57;;;2.88;;
68315;SDS011;55508;54.368;18.406;2023-12-20T02:16:20;7.72;;;1.80;;
68315;SDS011;55508;54.368;18.406;2023-12-20T02:18:48;5.07;;;2.45;;
68315;SDS011;55508;54.368;18.406;2023-12-20T02:21:15;10.35;;;2.90;;
68315;SDS011;55508;54.368;18.406;2023-12-20T02:23:42;5.22;;;2.78;;
68315;SDS011;55508;54.368;18.406;2023-12-20T02:26:09;6.55;;;2.78;;
68315;SDS011;55508;54.368;18.406;2023-12-20T02:28:37;5.60;;;2.45;;
68315;SDS011;55508;54.368;18.406;2023-12-20T02:31:04;10.48;;;3.78;;
68315;SDS011;55508;54.368;18.406;2023-12-20T02:33:31;8.32;;;2.80;;
68315;SDS011;55508;54.368;18.406;2023-12-20T02:35:58;7.78;;;2.28;;
68315;SDS011;55508;54.368;18.406;2023-12-20T02:38:25;10.90;;;2.95;;
68315;SDS011;55508;54.368;18.406;2023-12-20T02:40:52;8.20;;;2.67;;
68315;SDS011;55508;54.368;18.406;2023-12-20T02:43:19;8.70;;;2.67;;
68315;SDS011;55508;54.368;18.406;2023-12-20T02:45:46;9.95;;;1.88;;
68315;SDS011;55508;54.368;18.406;2023-12-20T02:48:13;8.07;;;2.15;;
68315;SDS011;55508;54.368;18.406;2023-12-20T02:50:40;8.63;;;2.08;;
68315;SDS011;55508;54.368;18.406;2023-12-20T02:53:07;9.85;;;2.75;;
68315;SDS011;55508;54.368;18.406;2023-12-20T02:55:34;8.55;;;1.85;;
68315;SDS011;55508;54.368;18.406;2023-12-20T02:58:01;5.10;;;1.67;;
68315;SDS011;55508;54.368;18.406;2023-12-20T03:00:29;8.02;;;1.65;;
68315;SDS011;55508;54.368;18.406;2023-12-20T03:02:56;5.57;;;1.50;;
68315;SDS011;55508;54.368;18.406;2023-12-20T03:05:23;10.48;;;1.60;;
68315;SDS011;55508;54.368;18.406;2023-12-20T03:07:50;7.85;;;1.45;;
68315;SDS011;55508;54.368;18.406;2023-12-20T03:10:18;5.13;;;1.85;;
68315;SDS011;55508;54.368;18.406;2023-12-20T03:12:52;13.65;;;1.60;;
68315;SDS011;55508;54.368;18.406;2023-12-20T03:15:19;7.18;;;1.90;;
68315;SDS011;55508;54.368;18.406;2023-12-20T03:17:46;8.13;;;2.05;;
68315;SDS011;55508;54.368;18.406;2023-12-20T03:20:14;14.40;;;2.05;;
68315;SDS011;55508;54.368;18.406;2023-12-20T03:22:41;8.68;;;1.83;;
68315;SDS011;55508;54.368;18.406;2023-12-20T03:25:08;8.98;;;1.48;;
68315;SDS011;55508;54.368;18.406;2023-12-20T03:27:36;7.57;;;1.95;;
68315;SDS011;55508;54.368;18.406;2023-12-20T03:30:05;9.02;;;1.63;;
68315;SDS011;55508;54.368;18.406;2023-12-20T03:32:33;5.57;;;1.00;;
68315;SDS011;55508;54.368;18.406;2023-12-20T03:35:00;8.70;;;1.65;;
68315;SDS011;55508;54.368;18.406;2023-12-20T03:37:27;8.43;;;1.70;;
68315;SDS011;55508;54.368;18.406;2023-12-20T03:39:54;7.15;;;1.63;;
68315;SDS011;55508;54.368;18.406;2023-12-20T03:42:21;7.15;;;1.38;;
68315;SDS011;55508;54.368;18.406;2023-12-20T03:44:48;18.25;;;2.17;;
68315;SDS011;55508;54.368;18.406;2023-12-20T03:47:16;5.13;;;1.20;;
68315;SDS011;55508;54.368;18.406;2023-12-20T03:49:43;10.98;;;1.77;;
68315;SDS011;55508;54.368;18.406;2023-12-20T03:52:09;7.15;;;1.50;;
68315;SDS011;55508;54.368;18.406;2023-12-20T03:54:37;10.27;;;1.70;;
68315;SDS011;55508;54.368;18.406;2023-12-20T03:57:04;9.15;;;1.60;;
68315;SDS011;55508;54.368;18.406;2023-12-20T03:59:34;8.38;;;1.75;;
68315;SDS011;55508;54.368;18.406;2023-12-20T04:04:30;10.68;;;1.50;;
68315;SDS011;55508;54.368;18.406;2023-12-20T04:06:57;5.05;;;1.13;;
68315;SDS011;55508;54.368;18.406;2023-12-20T04:09:24;9.40;;;1.58;;
68315;SDS011;55508;54.368;18.406;2023-12-20T04:11:51;12.00;;;1.48;;
68315;SDS011;55508;54.368;18.406;2023-12-20T04:14:18;5.45;;;1.42;;
68315;SDS011;55508;54.368;18.406;2023-12-20T04:16:45;8.98;;;1.33;;
68315;SDS011;55508;54.368;18.406;2023-12-20T04:19:13;7.40;;;1.70;;
68315;SDS011;55508;54.368;18.406;2023-12-20T04:21:40;14.10;;;2.17;;
68315;SDS011;55508;54.368;18.406;2023-12-20T04:24:07;9.05;;;1.73;;
68315;SDS011;55508;54.368;18.406;2023-12-20T04:26:34;9.35;;;1.70;;
68315;SDS011;55508;54.368;18.406;2023-12-20T04:29:01;6.30;;;1.67;;
68315;SDS011;55508;54.368;18.406;2023-12-20T04:31:29;6.03;;;1.60;;
68315;SDS011;55508;54.368;18.406;2023-12-20T04:33:56;6.47;;;1.25;;
68315;SDS011;55508;54.368;18.406;2023-12-20T04:36:23;7.70;;;1.67;;
68315;SDS011;55508;54.368;18.406;2023-12-20T04:38:51;4.30;;;1.70;;
68315;SDS011;55508;54.368;18.406;2023-12-20T04:41:18;9.23;;;2.17;;
68315;SDS011;55508;54.368;18.406;2023-12-20T04:43:45;8.60;;;1.73;;
68315;SDS011;55508;54.368;18.406;2023-12-20T04:46:12;6.15;;;1.70;;
68315;SDS011;55508;54.368;18.406;2023-12-20T04:48:40;7.07;;;2.00;;
68315;SDS011;55508;54.368;18.406;2023-12-20T04:51:07;9.35;;;1.88;;
68315;SDS011;55508;54.368;18.406;2023-12-20T04:53:34;8.65;;;2.35;;
68315;SDS011;55508;54.368;18.406;2023-12-20T04:56:01;11.77;;;2.20;;
68315;SDS011;55508;54.368;18.406;2023-12-20T04:58:28;5.85;;;2.00;;
68315;SDS011;55508;54.368;18.406;2023-12-20T05:00:55;10.07;;;2.30;;
68315;SDS011;55508;54.368;18.406;2023-12-20T05:03:22;10.20;;;2.35;;
68315;SDS011;55508;54.368;18.406;2023-12-20T05:05:49;5.32;;;2.17;;
68315;SDS011;55508;54.368;18.406;2023-12-20T05:08:16;11.13;;;2.13;;
68315;SDS011;55508;54.368;18.406;2023-12-20T05:10:43;9.05;;;2.25;;
68315;SDS011;55508;54.368;18.406;2023-12-20T05:13:10;10.85;;;2.40;;
68315;SDS011;55508;54.368;18.406;2023-12-20T05:15:37;8.40;;;2.25;;
68315;SDS011;55508;54.368;18.406;2023-12-20T05:18:04;9.05;;;2.97;;
68315;SDS011;55508;54.368;18.406;2023-12-20T05:20:33;9.27;;;2.17;;
68315;SDS011;55508;54.368;18.406;2023-12-20T05:23:00;7.10;;;1.90;;
68315;SDS011;55508;54.368;18.406;2023-12-20T05:25:27;12.35;;;2.60;;
68315;SDS011;55508;54.368;18.406;2023-12-20T05:27:54;8.30;;;2.03;;
68315;SDS011;55508;54.368;18.406;2023-12-20T05:30:22;10.43;;;2.45;;
68315;SDS011;55508;54.368;18.406;2023-12-20T05:32:49;6.10;;;2.08;;
68315;SDS011;55508;54.368;18.406;2023-12-20T05:35:17;9.45;;;2.63;;
68315;SDS011;55508;54.368;18.406;2023-12-20T05:37:46;7.93;;;2.60;;
68315;SDS011;55508;54.368;18.406;2023-12-20T05:40:13;6.45;;;3.13;;
68315;SDS011;55508;54.368;18.406;2023-12-20T05:42:40;13.02;;;3.00;;
68315;SDS011;55508;54.368;18.406;2023-12-20T05:45:08;10.90;;;2.25;;
68315;SDS011;55508;54.368;18.406;2023-12-20T05:47:36;10.82;;;2.95;;
68315;SDS011;55508;54.368;18.406;2023-12-20T05:50:03;7.72;;;2.60;;
68315;SDS011;55508;54.368;18.406;2023-12-20T05:52:30;11.38;;;2.85;;
68315;SDS011;55508;54.368;18.406;2023-12-20T05:54:57;7.72;;;2.53;;
68315;SDS011;55508;54.368;18.406;2023-12-20T05:57:28;13.07;;;2.67;;
68315;SDS011;55508;54.368;18.406;2023-12-20T05:59:54;10.43;;;2.83;;
68315;SDS011;55508;54.368;18.406;2023-12-20T06:02:22;14.50;;;2.83;;
68315;SDS011;55508;54.368;18.406;2023-12-20T06:04:49;9.45;;;2.90;;
68315;SDS011;55508;54.368;18.406;2023-12-20T06:07:16;11.93;;;2.80;;
68315;SDS011;55508;54.368;18.406;2023-12-20T06:09:43;5.22;;;2.15;;
68315;SDS011;55508;54.368;18.406;2023-12-20T06:12:10;8.25;;;2.50;;
68315;SDS011;55508;54.368;18.406;2023-12-20T06:14:37;9.88;;;2.55;;
68315;SDS011;55508;54.368;18.406;2023-12-20T06:17:04;12.95;;;2.60;;
68315;SDS011;55508;54.368;18.406;2023-12-20T06:19:31;8.70;;;2.67;;
68315;SDS011;55508;54.368;18.406;2023-12-20T06:21:58;13.35;;;3.30;;
68315;SDS011;55508;54.368;18.406;2023-12-20T06:24:25;9.27;;;3.08;;
68315;SDS011;55508;54.368;18.406;2023-12-20T06:26:54;8.77;;;2.88;;
68315;SDS011;55508;54.368;18.406;2023-12-20T06:29:22;10.98;;;2.47;;
68315;SDS011;55508;54.368;18.406;2023-12-20T06:31:49;9.40;;;2.90;;
68315;SDS011;55508;54.368;18.406;2023-12-20T06:34:16;10.48;;;2.38;;
68315;SDS011;55508;54.368;18.406;2023-12-20T06:36:43;10.75;;;2.80;;
68315;SDS011;55508;54.368;18.406;2023-12-20T06:39:10;7.00;;;3.20;;
68315;SDS011;55508;54.368;18.406;2023-12-20T06:41:39;8.52;;;2.65;;
68315;SDS011;55508;54.368;18.406;2023-12-20T06:44:06;7.30;;;2.45;;
68315;SDS011;55508;54.368;18.406;2023-12-20T06:46:33;9.13;;;2.67;;
68315;SDS011;55508;54.368;18.406;2023-12-20T06:49:00;6.43;;;2.35;;
68315;SDS011;55508;54.368;18.406;2023-12-20T06:51:27;9.25;;;3.08;;
68315;SDS011;55508;54.368;18.406;2023-12-20T06:53:54;11.52;;;2.83;;
68315;SDS011;55508;54.368;18.406;2023-12-20T06:56:21;8.27;;;2.95;;
68315;SDS011;55508;54.368;18.406;2023-12-20T06:58:48;12.20;;;3.17;;
68315;SDS011;55508;54.368;18.406;2023-12-20T07:01:16;9.52;;;2.53;;
68315;SDS011;55508;54.368;18.406;2023-12-20T07:03:43;10.50;;;3.35;;
68315;SDS011;55508;54.368;18.406;2023-12-20T07:06:10;11.50;;;2.92;;
68315;SDS011;55508;54.368;18.406;2023-12-20T07:08:37;11.70;;;2.33;;
68315;SDS011;55508;54.368;18.406;2023-12-20T07:11:04;9.10;;;2.92;;
68315;SDS011;55508;54.368;18.406;2023-12-20T07:13:31;12.15;;;3.38;;
68315;SDS011;55508;54.368;18.406;2023-12-20T07:15:58;6.40;;;2.75;;
68315;SDS011;55508;54.368;18.406;2023-12-20T07:18:25;9.23;;;2.55;;
68315;SDS011;55508;54.368;18.406;2023-12-20T07:20:52;9.70;;;3.25;;
68315;SDS011;55508;54.368;18.406;2023-12-20T07:23:21;8.98;;;3.55;;
68315;SDS011;55508;54.368;18.406;2023-12-20T07:25:48;13.75;;;3.95;;
68315;SDS011;55508;54.368;18.406;2023-12-20T07:28:15;10.88;;;4.03;;
68315;SDS011;55508;54.368;18.406;2023-12-20T07:30:42;16.85;;;5.60;;
68315;SDS011;55508;54.368;18.406;2023-12-20T07:33:09;14.23;;;4.78;;
68315;SDS011;55508;54.368;18.406;2023-12-20T07:35:36;9.73;;;3.60;;
68315;SDS011;55508;54.368;18.406;2023-12-20T07:38:04;13.50;;;4.22;;
68315;SDS011;55508;54.368;18.406;2023-12-20T07:40:31;4.03;;;2.67;;
68315;SDS011;55508;54.368;18.406;2023-12-20T07:42:58;11.55;;;3.75;;
68315;SDS011;55508;54.368;18.406;2023-12-20T07:45:25;22.75;;;9.70;;
68315;SDS011;55508;54.368;18.406;2023-12-20T07:47:52;25.42;;;9.43;;
68315;SDS011;55508;54.368;18.406;2023-12-20T07:50:20;27.65;;;9.35;;
68315;SDS011;55508;54.368;18.406;2023-12-20T07:52:47;23.48;;;7.47;;
68315;SDS011;55508;54.368;18.406;2023-12-20T07:55:14;42.70;;;12.75;;
68315;SDS011;55508;54.368;18.406;2023-12-20T07:57:41;39.05;;;13.07;;
68315;SDS011;55508;54.368;18.406;2023-12-20T08:00:09;33.05;;;10.27;;
68315;SDS011;55508;54.368;18.406;2023-12-20T08:02:36;51.88;;;18.13;;
68315;SDS011;55508;54.368;18.406;2023-12-20T08:05:03;35.08;;;12.38;;
68315;SDS011;55508;54.368;18.406;2023-12-20T08:07:30;25.50;;;11.52;;
68315;SDS011;55508;54.368;18.406;2023-12-20T08:09:57;25.42;;;9.63;;
68315;SDS011;55508;54.368;18.406;2023-12-20T08:12:24;32.58;;;10.80;;
68315;SDS011;55508;54.368;18.406;2023-12-20T08:14:54;24.65;;;8.55;;
68315;SDS011;55508;54.368;18.406;2023-12-20T08:17:21;20.75;;;7.93;;
68315;SDS011;55508;54.368;18.406;2023-12-20T08:19:50;29.25;;;8.93;;
68315;SDS011;55508;54.368;18.406;2023-12-20T08:22:18;15.07;;;7.03;;
68315;SDS011;55508;54.368;18.406;2023-12-20T08:24:45;15.45;;;6.75;;
68315;SDS011;55508;54.368;18.406;2023-12-20T08:27:12;12.93;;;6.75;;
68315;SDS011;55508;54.368;18.406;2023-12-20T08:29:39;12.98;;;5.63;;
68315;SDS011;55508;54.368;18.406;2023-12-20T08:32:06;19.40;;;6.18;;
68315;SDS011;55508;54.368;18.406;2023-12-20T08:34:33;12.90;;;5.20;;
68315;SDS011;55508;54.368;18.406;2023-12-20T08:37:00;10.13;;;5.15;;
68315;SDS011;55508;54.368;18.406;2023-12-20T08:39:27;15.90;;;4.85;;
68315;SDS011;55508;54.368;18.406;2023-12-20T08:41:58;11.30;;;5.03;;
68315;SDS011;55508;54.368;18.406;2023-12-20T08:44:25;9.70;;;5.13;;
68315;SDS011;55508;54.368;18.406;2023-12-20T08:46:52;11.00;;;3.95;;
68315;SDS011;55508;54.368;18.406;2023-12-20T08:49:19;8.18;;;3.35;;
68315;SDS011;55508;54.368;18.406;2023-12-20T08:51:46;13.80;;;3.90;;
68315;SDS011;55508;54.368;18.406;2023-12-20T08:54:13;8.48;;;3.80;;
68315;SDS011;55508;54.368;18.406;2023-12-20T08:56:40;12.80;;;4.10;;
68315;SDS011;55508;54.368;18.406;2023-12-20T08:59:07;7.80;;;3.90;;
68315;SDS011;55508;54.368;18.406;2023-12-20T09:01:34;11.32;;;3.13;;
68315;SDS011;55508;54.368;18.406;2023-12-20T09:04:01;3.90;;;2.65;;
68315;SDS011;55508;54.368;18.406;2023-12-20T09:06:29;8.20;;;2.97;;
68315;SDS011;55508;54.368;18.406;2023-12-20T09:08:56;13.35;;;3.75;;
68315;SDS011;55508;54.368;18.406;2023-12-20T09:11:23;12.55;;;3.88;;
68315;SDS011;55508;54.368;18.406;2023-12-20T09:13:50;10.88;;;3.67;;
68315;SDS011;55508;54.368;18.406;2023-12-20T09:16:17;11.23;;;4.00;;
68315;SDS011;55508;54.368;18.406;2023-12-20T09:18:44;10.32;;;3.90;;
68315;SDS011;55508;54.368;18.406;2023-12-20T09:21:12;7.05;;;3.72;;
68315;SDS011;55508;54.368;18.406;2023-12-20T09:23:39;7.70;;;3.50;;
68315;SDS011;55508;54.368;18.406;2023-12-20T09:26:06;7.47;;;3.83;;
68315;SDS011;55508;54.368;18.406;2023-12-20T09:28:33;9.35;;;3.85;;
68315;SDS011;55508;54.368;18.406;2023-12-20T09:31:04;8.00;;;3.70;;
68315;SDS011;55508;54.368;18.406;2023-12-20T09:33:32;11.95;;;4.13;;
68315;SDS011;55508;54.368;18.406;2023-12-20T09:36:09;6.30;;;3.88;;
68315;SDS011;55508;54.368;18.406;2023-12-20T09:38:36;7.40;;;3.28;;
68315;SDS011;55508;54.368;18.406;2023-12-20T09:41:03;11.02;;;3.70;;
68315;SDS011;55508;54.368;18.406;2023-12-20T09:43:31;11.63;;;4.68;;
68315;SDS011;55508;54.368;18.406;2023-12-20T09:46:05;8.85;;;3.78;;
68315;SDS011;55508;54.368;18.406;2023-12-20T09:48:34;7.57;;;3.78;;
68315;SDS011;55508;54.368;18.406;2023-12-20T09:51:01;9.23;;;3.78;;
68315;SDS011;55508;54.368;18.406;2023-12-20T09:53:29;7.10;;;4.05;;
68315;SDS011;55508;54.368;18.406;2023-12-20T09:55:59;6.80;;;3.85;;
68315;SDS011;55508;54.368;18.406;2023-12-20T09:58:29;10.10;;;3.78;;
68315;SDS011;55508;54.368;18.406;2023-12-20T10:00:56;13.82;;;4.68;;
68315;SDS011;55508;54.368;18.406;2023-12-20T10:03:25;8.68;;;4.03;;
68315;SDS011;55508;54.368;18.406;2023-12-20T10:05:54;8.32;;;4.50;;
68315;SDS011;55508;54.368;18.406;2023-12-20T10:08:24;7.68;;;3.67;;
68315;SDS011;55508;54.368;18.406;2023-12-20T10:10:51;7.50;;;2.78;;
68315;SDS011;55508;54.368;18.406;2023-12-20T10:13:18;8.95;;;3.50;;
68315;SDS011;55508;54.368;18.406;2023-12-20T10:15:45;12.93;;;3.45;;
68315;SDS011;55508;54.368;18.406;2023-12-20T10:18:13;13.43;;;3.80;;
68315;SDS011;55508;54.368;18.406;2023-12-20T10:20:40;6.25;;;3.33;;
68315;SDS011;55508;54.368;18.406;2023-12-20T10:23:08;10.65;;;3.40;;
68315;SDS011;55508;54.368;18.406;2023-12-20T10:25:36;8.40;;;4.07;;
68315;SDS011;55508;54.368;18.406;2023-12-20T10:28:12;7.28;;;3.70;;
68315;SDS011;55508;54.368;18.406;2023-12-20T10:30:41;6.90;;;3.42;;
68315;SDS011;55508;54.368;18.406;2023-12-20T10:33:09;9.85;;;3.83;;
68315;SDS011;55508;54.368;18.406;2023-12-20T10:35:38;6.88;;;4.43;;
68315;SDS011;55508;54.368;18.406;2023-12-20T10:38:10;8.30;;;3.80;;
68315;SDS011;55508;54.368;18.406;2023-12-20T10:40:40;11.07;;;4.80;;
68315;SDS011;55508;54.368;18.406;2023-12-20T10:43:07;5.82;;;3.60;;
68315;SDS011;55508;54.368;18.406;2023-12-20T10:45:35;7.88;;;4.10;;
68315;SDS011;55508;54.368;18.406;2023-12-20T10:48:03;9.10;;;4.68;;
68315;SDS011;55508;54.368;18.406;2023-12-20T10:50:31;6.45;;;4.57;;
68315;SDS011;55508;54.368;18.406;2023-12-20T10:52:58;11.00;;;4.97;;
68315;SDS011;55508;54.368;18.406;2023-12-20T10:55:26;7.20;;;4.70;;
68315;SDS011;55508;54.368;18.406;2023-12-20T10:58:00;12.10;;;5.20;;
68315;SDS011;55508;54.368;18.406;2023-12-20T11:00:31;10.40;;;5.55;;
68315;SDS011;55508;54.368;18.406;2023-12-20T11:03:00;13.15;;;6.47;;
68315;SDS011;55508;54.368;18.406;2023-12-20T11:08:22;10.38;;;5.78;;
68315;SDS011;55508;54.368;18.406;2023-12-20T11:11:04;11.80;;;6.40;;
68315;SDS011;55508;54.368;18.406;2023-12-20T11:13:34;12.23;;;6.18;;
68315;SDS011;55508;54.368;18.406;2023-12-20T11:16:04;13.48;;;5.97;;
68315;SDS011;55508;54.368;18.406;2023-12-20T11:18:31;11.60;;;5.75;;
68315;SDS011;55508;54.368;18.406;2023-12-20T11:21:02;14.43;;;6.07;;
68315;SDS011;55508;54.368;18.406;2023-12-20T11:23:34;16.75;;;5.90;;
68315;SDS011;55508;54.368;18.406;2023-12-20T11:26:02;15.07;;;6.50;;
68315;SDS011;55508;54.368;18.406;2023-12-20T11:28:29;10.02;;;5.80;;
68315;SDS011;55508;54.368;18.406;2023-12-20T11:30:57;11.05;;;6.15;;
68315;SDS011;55508;54.368;18.406;2023-12-20T11:33:29;10.52;;;5.50;;
68315;SDS011;55508;54.368;18.406;2023-12-20T11:35:58;12.13;;;6.75;;
68315;SDS011;55508;54.368;18.406;2023-12-20T11:38:26;12.80;;;6.68;;
68315;SDS011;55508;54.368;18.406;2023-12-20T11:40:54;11.20;;;7.90;;
68315;SDS011;55508;54.368;18.406;2023-12-20T11:46:09;13.65;;;7.75;;
68315;SDS011;55508;54.368;18.406;2023-12-20T11:48:37;15.13;;;8.60;;
68315;SDS011;55508;54.368;18.406;2023-12-20T11:51:09;10.30;;;6.10;;
68315;SDS011;55508;54.368;18.406;2023-12-20T11:53:38;18.70;;;9.43;;
68315;SDS011;55508;54.368;18.406;2023-12-20T11:56:06;15.10;;;6.72;;
68315;SDS011;55508;54.368;18.406;2023-12-20T11:58:33;10.20;;;5.18;;
68315;SDS011;55508;54.368;18.406;2023-12-20T12:01:01;9.70;;;6.25;;
68315;SDS011;55508;54.368;18.406;2023-12-20T12:03:31;8.30;;;5.95;;
68315;SDS011;55508;54.368;18.406;2023-12-20T12:05:59;10.13;;;4.05;;
68315;SDS011;55508;54.368;18.406;2023-12-20T12:08:27;4.18;;;3.70;;
68315;SDS011;55508;54.368;18.406;2023-12-20T12:10:54;6.85;;;4.30;;
68315;SDS011;55508;54.368;18.406;2023-12-20T12:13:21;7.68;;;4.82;;
68315;SDS011;55508;54.368;18.406;2023-12-20T12:15:48;7.82;;;5.32;;
68315;SDS011;55508;54.368;18.406;2023-12-20T12:18:16;6.63;;;4.50;;
68315;SDS011;55508;54.368;18.406;2023-12-20T12:20:44;6.80;;;3.58;;
68315;SDS011;55508;54.368;18.406;2023-12-20T12:23:11;7.30;;;3.85;;
68315;SDS011;55508;54.368;18.406;2023-12-20T12:25:38;7.60;;;4.80;;
68315;SDS011;55508;54.368;18.406;2023-12-20T12:28:09;9.30;;;4.13;;
68315;SDS011;55508;54.368;18.406;2023-12-20T12:30:37;8.43;;;5.03;;
68315;SDS011;55508;54.368;18.406;2023-12-20T12:33:12;11.10;;;6.15;;
68315;SDS011;55508;54.368;18.406;2023-12-20T12:35:40;8.65;;;5.05;;
68315;SDS011;55508;54.368;18.406;2023-12-20T12:38:07;5.28;;;4.00;;
68315;SDS011;55508;54.368;18.406;2023-12-20T12:40:35;4.57;;;3.97;;
68315;SDS011;55508;54.368;18.406;2023-12-20T12:43:03;5.70;;;3.60;;
68315;SDS011;55508;54.368;18.406;2023-12-20T12:45:31;5.57;;;4.40;;
68315;SDS011;55508;54.368;18.406;2023-12-20T12:47:59;7.32;;;4.72;;
68315;SDS011;55508;54.368;18.406;2023-12-20T12:50:26;7.45;;;3.35;;
68315;SDS011;55508;54.368;18.406;2023-12-20T12:52:55;6.32;;;3.42;;
68315;SDS011;55508;54.368;18.406;2023-12-20T12:55:22;6.13;;;3.13;;
68315;SDS011;55508;54.368;18.406;2023-12-20T12:57:50;5.57;;;3.33;;
68315;SDS011;55508;54.368;18.406;2023-12-20T13:00:17;2.90;;;2.40;;
68315;SDS011;55508;54.368;18.406;2023-12-20T13:02:44;5.10;;;3.22;;
68315;SDS011;55508;54.368;18.406;2023-12-20T13:05:11;4.07;;;3.13;;
68315;SDS011;55508;54.368;18.406;2023-12-20T13:07:38;5.47;;;3.35;;
68315;SDS011;55508;54.368;18.406;2023-12-20T13:10:06;4.53;;;3.50;;
68315;SDS011;55508;54.368;18.406;2023-12-20T13:12:33;5.35;;;3.22;;
68315;SDS011;55508;54.368;18.406;2023-12-20T13:15:00;3.92;;;3.10;;
68315;SDS011;55508;54.368;18.406;2023-12-20T13:17:27;5.18;;;3.08;;
68315;SDS011;55508;54.368;18.406;2023-12-20T13:19:57;3.78;;;2.15;;
68315;SDS011;55508;54.368;18.406;2023-12-20T13:22:26;2.92;;;2.63;;
68315;SDS011;55508;54.368;18.406;2023-12-20T13:24:53;2.90;;;2.60;;
68315;SDS011;55508;54.368;18.406;2023-12-20T13:27:20;3.97;;;2.83;;
68315;SDS011;55508;54.368;18.406;2023-12-20T13:29:47;3.30;;;2.75;;
68315;SDS011;55508;54.368;18.406;2023-12-20T13:32:14;3.53;;;3.03;;
68315;SDS011;55508;54.368;18.406;2023-12-20T13:34:41;5.75;;;5.15;;
68315;SDS011;55508;54.368;18.406;2023-12-20T13:37:08;6.68;;;4.90;;
68315;SDS011;55508;54.368;18.406;2023-12-20T13:39:36;4.93;;;4.10;;
68315;SDS011;55508;54.368;18.406;2023-12-20T13:42:03;7.50;;;3.42;;
68315;SDS011;55508;54.368;18.406;2023-12-20T13:44:30;6.90;;;3.78;;
68315;SDS011;55508;54.368;18.406;2023-12-20T13:46:57;4.38;;;3.45;;
68315;SDS011;55508;54.368;18.406;2023-12-20T13:49:24;4.60;;;3.80;;
68315;SDS011;55508;54.368;18.406;2023-12-20T13:51:53;4.53;;;2.88;;
68315;SDS011;55508;54.368;18.406;2023-12-20T13:54:21;3.30;;;2.97;;
68315;SDS011;55508;54.368;18.406;2023-12-20T13:56:49;3.58;;;3.08;;
68315;SDS011;55508;54.368;18.406;2023-12-20T13:59:34;3.85;;;3.33;;
68315;SDS011;55508;54.368;18.406;2023-12-20T14:02:01;3.10;;;2.80;;
68315;SDS011;55508;54.368;18.406;2023-12-20T14:04:30;3.80;;;3.50;;
68315;SDS011;55508;54.368;18.406;2023-12-20T14:07:09;3.20;;;2.83;;
68315;SDS011;55508;54.368;18.406;2023-12-20T14:09:39;4.22;;;3.30;;
68315;SDS011;55508;54.368;18.406;2023-12-20T14:12:12;3.13;;;2.75;;
68315;SDS011;55508;54.368;18.406;2023-12-20T14:14:40;3.58;;;3.28;;
68315;SDS011;55508;54.368;18.406;2023-12-20T14:17:07;4.55;;;4.00;;
68315;SDS011;55508;54.368;18.406;2023-12-20T14:19:34;5.00;;;4.32;;
68315;SDS011;55508;54.368;18.406;2023-12-20T14:22:01;5.47;;;3.92;;
68315;SDS011;55508;54.368;18.406;2023-12-20T14:24:29;4.65;;;3.70;;
68315;SDS011;55508;54.368;18.406;2023-12-20T14:26:56;4.28;;;3.72;;
68315;SDS011;55508;54.368;18.406;2023-12-20T14:29:25;5.57;;;3.63;;
68315;SDS011;55508;54.368;18.406;2023-12-20T14:31:53;4.20;;;3.80;;
68315;SDS011;55508;54.368;18.406;2023-12-20T14:34:20;4.60;;;4.15;;
68315;SDS011;55508;54.368;18.406;2023-12-20T14:36:47;4.13;;;3.75;;
68315;SDS011;55508;54.368;18.406;2023-12-20T14:39:15;4.07;;;3.67;;
68315;SDS011;55508;54.368;18.406;2023-12-20T14:41:43;4.97;;;4.07;;